Time;durP1;ratioP1;P1;durP2;ratioP2;P2;SDS_P1;SDS_P2;PMS_P1;PMS_P2;Temp;Humidity;BMP_temperature;BMP_pressure;BME280_temperature;BME280_humidity;BME280_pressure;Samples;Min_cycle;Max_cycle;Signal;HPM_P1;HPM_P2
2022/04/26 03:37:55;;;;;;;3.78;2.78;;;10.50;99.90;;;;;;7349638;19;107190;-94
2022/04/26 03:40:22;;;;;;;6.90;2.83;;;10.60;99.90;;;;;;7347822;19;107849;-93
2022/04/26 03:42:49;;;;;;;7.25;3.78;;;10.60;99.90;;;;;;7348473;19;106971;-92
2022/04/26 03:45:16;;;;;;;5.88;3.50;;;10.60;99.90;;;;;;7346091;19;108469;-93
2022/04/26 03:47:43;;;;;;;4.38;3.28;;;10.50;99.90;;;;;;7346011;19;108207;-93
2022/04/26 03:50:10;;;;;;;6.53;3.30;;;10.60;99.90;;;;;;7346756;19;107274;-93
2022/04/26 03:52:41;;;;;;;5.90;3.42;;;10.60;99.90;;;;;;7347115;19;106721;-93
2022/04/26 03:55:08;;;;;;;4.68;3.20;;;10.60;99.90;;;;;;7349247;19;108239;-92
2022/04/26 03:57:36;;;;;;;4.95;3.00;;;10.60;99.90;;;;;;7344974;19;108053;-92
2022/04/26 04:00:05;;;;;;;6.82;3.22;;;10.60;99.90;;;;;;7347323;19;108294;-92
2022/04/26 04:02:32;;;;;;;6.68;3.28;;;10.50;99.90;;;;;;7345837;19;108013;-93
2022/04/26 04:04:59;;;;;;;6.13;3.33;;;10.50;99.90;;;;;;7347298;19;107268;-94
2022/04/26 04:07:26;;;;;;;6.60;3.83;;;10.50;99.90;;;;;;7352898;19;109055;-92
2022/04/26 04:09:54;;;;;;;6.00;3.30;;;10.50;99.90;;;;;;7354241;19;107233;-92
2022/04/26 04:12:21;;;;;;;7.65;4.00;;;10.40;99.90;;;;;;7352215;19;108581;-93
2022/04/26 04:14:48;;;;;;;6.97;3.92;;;10.50;99.90;;;;;;7352929;19;108233;-92
2022/04/26 04:17:15;;;;;;;7.03;3.63;;;10.50;99.90;;;;;;7358101;19;107139;-93
2022/04/26 04:19:42;;;;;;;8.90;3.53;;;10.60;99.90;;;;;;7352374;19;108150;-93
2022/04/26 04:22:10;;;;;;;7.72;3.47;;;10.60;99.90;;;;;;7351912;19;107087;-93
2022/04/26 04:24:37;;;;;;;9.02;3.60;;;10.60;99.90;;;;;;7351377;19;109066;-92
2022/04/26 04:27:04;;;;;;;7.45;3.53;;;10.60;99.90;;;;;;7352636;19;108087;-93
2022/04/26 04:32:01;;;;;;;6.82;3.40;;;10.50;99.90;;;;;;7348775;19;106897;-93
2022/04/26 04:34:28;;;;;;;6.40;3.47;;;10.50;99.90;;;;;;7351410;19;108079;-93
2022/04/26 04:36:56;;;;;;;9.20;3.83;;;10.50;99.90;;;;;;7356814;19;107041;-92
2022/04/26 04:39:23;;;;;;;5.30;3.42;;;10.50;99.90;;;;;;7346416;19;110512;-93
2022/04/26 04:41:51;;;;;;;8.18;3.90;;;10.50;99.90;;;;;;7351487;19;107637;-93
2022/04/26 04:44:22;;;;;;;4.72;3.45;;;10.60;99.90;;;;;;7350895;19;111083;-92
2022/04/26 04:46:49;;;;;;;7.38;3.88;;;10.60;99.90;;;;;;7350506;19;111523;-93
2022/04/26 04:49:16;;;;;;;5.93;4.10;;;10.60;99.90;;;;;;7349778;19;109949;-92
2022/04/26 04:51:43;;;;;;;7.28;3.95;;;10.60;99.90;;;;;;7350403;19;110286;-93
2022/04/26 04:54:10;;;;;;;5.18;3.70;;;10.60;99.90;;;;;;7349186;19;108978;-94
2022/04/26 04:56:37;;;;;;;7.03;4.05;;;10.60;99.90;;;;;;7347202;19;108882;-92
2022/04/26 04:59:04;;;;;;;5.45;3.60;;;10.60;99.90;;;;;;7355027;19;109641;-93
2022/04/26 05:01:31;;;;;;;12.63;4.22;;;10.50;99.90;;;;;;7351097;19;109396;-93
2022/04/26 05:03:58;;;;;;;7.70;3.95;;;10.50;99.90;;;;;;7350357;19;108709;-94
2022/04/26 05:06:26;;;;;;;7.43;4.20;;;10.50;99.90;;;;;;7350992;19;111436;-93
2022/04/26 05:08:52;;;;;;;;;;;10.50;99.90;;;;;;7351031;19;110504;-92
2022/04/26 05:11:19;;;;;;;7.78;4.28;;;10.40;99.90;;;;;;7354266;19;109144;-91
2022/04/26 05:13:52;;;;;;;7.20;4.13;;;10.30;99.90;;;;;;7348037;19;111318;-94
2022/04/26 05:16:20;;;;;;;5.95;4.05;;;10.30;99.90;;;;;;7351194;19;109548;-95
2022/04/26 05:18:52;;;;;;;6.93;3.80;;;10.30;99.90;;;;;;7354668;19;108146;-96
2022/04/26 05:21:30;;;;;;;7.07;4.30;;;10.40;99.90;;;;;;7363594;19;106913;-96
2022/04/26 05:26:51;;;;;;;7.80;4.10;;;10.60;99.90;;;;;;7344346;19;108852;-87
2022/04/26 05:29:18;;;;;;;7.20;4.00;;;10.60;99.90;;;;;;7343786;19;111454;-87
2022/04/26 05:31:45;;;;;;;4.47;3.78;;;10.70;99.90;;;;;;7344670;19;110325;-88
2022/04/26 05:34:12;;;;;;;7.82;4.35;;;10.70;99.90;;;;;;7346713;19;109076;-88
2022/04/26 05:36:57;;;;;;;5.78;3.80;;;10.70;99.90;;;;;;7345167;19;109157;-90
2022/04/26 05:39:24;;;;;;;6.15;3.90;;;10.70;99.90;;;;;;7346089;19;109968;-90
2022/04/26 05:41:51;;;;;;;8.60;4.05;;;10.70;99.90;;;;;;7346384;19;108201;-89
2022/04/26 05:44:18;;;;;;;;;;;10.70;99.90;;;;;;7349140;19;107141;-88
2022/04/26 05:46:45;;;;;;;8.77;4.18;;;10.70;99.90;;;;;;7346046;19;107898;-86
2022/04/26 05:49:12;;;;;;;5.75;3.45;;;10.70;99.90;;;;;;7341739;19;107208;-87
2022/04/26 05:51:39;;;;;;;;;;;10.70;99.90;;;;;;7345038;19;107609;-83
2022/04/26 05:54:06;;;;;;;6.38;4.32;;;10.80;99.90;;;;;;7338540;19;109066;-83
2022/04/26 05:56:33;;;;;;;;;;;10.70;99.90;;;;;;7341218;19;108024;-82
2022/04/26 05:59:00;;;;;;;9.02;4.10;;;10.80;99.90;;;;;;7344667;19;108110;-82
2022/04/26 06:01:27;;;;;;;5.68;3.92;;;10.70;99.90;;;;;;7340898;19;109277;-82
2022/04/26 06:03:54;;;;;;;7.75;4.15;;;10.70;99.90;;;;;;7341940;19;107945;-82
2022/04/26 06:06:21;;;;;;;6.00;3.72;;;10.80;99.90;;;;;;7347964;19;108641;-82
2022/04/26 06:08:49;;;;;;;10.55;4.07;;;10.80;99.90;;;;;;7342226;19;110823;-82
2022/04/26 06:11:16;;;;;;;7.57;3.67;;;10.80;99.90;;;;;;7342416;19;109513;-83
2022/04/26 06:13:43;;;;;;;4.28;3.63;;;10.90;99.90;;;;;;7340597;19;110947;-82
2022/04/26 06:16:10;;;;;;;;;;;10.90;99.90;;;;;;7341977;19;107927;-82
2022/04/26 06:18:37;;;;;;;6.75;3.90;;;10.90;99.90;;;;;;7345573;19;107809;-81
2022/04/26 06:21:04;;;;;;;;;;;10.90;99.90;;;;;;7339895;19;108997;-82
2022/04/26 06:23:31;;;;;;;4.72;3.42;;;10.80;99.90;;;;;;7341282;19;108700;-82
2022/04/26 06:25:59;;;;;;;7.43;3.47;;;10.90;99.90;;;;;;7347142;19;108658;-82
2022/04/26 06:28:26;;;;;;;7.65;3.38;;;10.90;99.90;;;;;;7340587;19;108232;-82
2022/04/26 06:30:56;;;;;;;6.20;3.53;;;10.90;99.90;;;;;;7337296;19;108277;-81
2022/04/26 06:33:23;;;;;;;9.43;3.55;;;10.90;99.90;;;;;;7337494;19;109173;-82
2022/04/26 06:35:51;;;;;;;5.38;3.45;;;10.90;99.90;;;;;;7336830;19;108080;-82
2022/04/26 06:38:19;;;;;;;9.55;3.58;;;10.80;99.90;;;;;;7331033;19;107911;-83
2022/04/26 06:40:46;;;;;;;8.27;3.85;;;10.80;99.90;;;;;;7336537;19;108421;-83
2022/04/26 06:43:14;;;;;;;7.22;3.78;;;10.90;99.90;;;;;;7327536;19;109168;-84
2022/04/26 06:45:41;;;;;;;9.48;3.70;;;10.90;99.90;;;;;;7333517;19;108234;-84
2022/04/26 06:48:09;;;;;;;6.10;3.58;;;11.00;99.90;;;;;;7342398;19;108885;-84
2022/04/26 06:50:37;;;;;;;5.25;3.35;;;11.00;99.90;;;;;;7339249;19;109041;-83
2022/04/26 06:53:05;;;;;;;5.65;3.75;;;11.00;99.90;;;;;;7332994;19;109490;-83
2022/04/26 06:55:32;;;;;;;7.20;3.70;;;11.00;99.90;;;;;;7337170;19;108294;-83
2022/04/26 06:57:59;;;;;;;10.27;4.03;;;11.10;99.90;;;;;;7337539;19;108361;-82
2022/04/26 07:00:27;;;;;;;7.47;4.15;;;11.10;99.90;;;;;;7335702;19;108087;-82
2022/04/26 07:02:54;;;;;;;5.40;4.00;;;11.10;99.90;;;;;;7337687;19;108201;-83
2022/04/26 07:05:24;;;;;;;7.32;3.97;;;11.10;99.90;;;;;;7337736;19;108664;-83
2022/04/26 07:07:52;;;;;;;9.73;4.22;;;11.00;99.90;;;;;;7336333;19;113005;-83
2022/04/26 07:10:19;;;;;;;7.95;3.88;;;11.00;99.90;;;;;;7341988;19;108597;-82
2022/04/26 07:12:46;;;;;;;10.57;4.10;;;11.00;99.90;;;;;;7338905;19;108862;-82
2022/04/26 07:15:13;;;;;;;6.95;4.25;;;11.10;99.90;;;;;;7338608;19;107555;-83
2022/04/26 07:17:41;;;;;;;5.63;3.45;;;11.10;99.90;;;;;;7335425;19;108416;-82
2022/04/26 07:20:09;;;;;;;8.88;4.43;;;11.10;99.90;;;;;;7339059;19;109060;-82
2022/04/26 07:22:37;;;;;;;11.35;4.03;;;11.20;99.90;;;;;;7334393;19;108208;-83
2022/04/26 07:25:09;;;;;;;7.13;4.00;;;11.20;99.90;;;;;;7333670;19;108702;-82
2022/04/26 07:27:37;;;;;;;7.57;4.82;;;11.20;99.90;;;;;;7338618;19;108985;-83
2022/04/26 07:30:04;;;;;;;11.30;4.15;;;11.30;99.90;;;;;;7338922;19;109653;-83
2022/04/26 07:35:17;;;;;;;9.30;4.55;;;11.50;99.90;;;;;;7339846;19;107797;-82
2022/04/26 07:37:44;;;;;;;8.73;4.88;;;11.60;99.90;;;;;;7334758;19;107974;-82
2022/04/26 07:40:11;;;;;;;6.68;4.18;;;11.70;99.90;;;;;;7338919;19;109175;-83
2022/04/26 07:42:38;;;;;;;9.95;4.53;;;11.90;99.90;;;;;;7344651;19;107803;-85
2022/04/26 07:45:06;;;;;;;7.47;4.38;;;12.00;99.90;;;;;;7347697;19;108226;-83
2022/04/26 07:47:34;;;;;;;7.28;4.00;;;12.20;99.90;;;;;;7345306;19;112631;-83
2022/04/26 07:50:02;;;;;;;5.32;3.95;;;12.30;99.90;;;;;;7345514;19;108006;-83
2022/04/26 07:52:29;;;;;;;11.27;4.25;;;12.40;99.90;;;;;;7345376;19;108570;-83
2022/04/26 07:54:56;;;;;;;16.02;4.65;;;12.40;99.90;;;;;;7348999;19;109156;-84
2022/04/26 07:57:23;;;;;;;8.30;3.90;;;12.40;99.90;;;;;;7345053;19;108914;-84
2022/04/26 07:59:51;;;;;;;8.43;4.30;;;12.30;99.90;;;;;;7345396;19;108217;-84
2022/04/26 08:02:18;;;;;;;8.07;3.88;;;12.40;99.90;;;;;;7344161;19;107561;-83
2022/04/26 08:04:46;;;;;;;9.48;4.00;;;12.40;99.40;;;;;;7345651;19;108694;-84
2022/04/26 08:07:13;;;;;;;6.70;3.80;;;12.40;99.30;;;;;;7345782;19;107924;-83
2022/04/26 08:09:40;;;;;;;7.82;3.85;;;12.30;99.00;;;;;;7346102;19;107741;-83
2022/04/26 08:12:08;;;;;;;7.65;3.85;;;12.40;99.30;;;;;;7344683;19;108184;-84
2022/04/26 08:14:35;;;;;;;5.43;3.50;;;12.60;99.20;;;;;;7339550;19;112319;-84
2022/04/26 08:17:03;;;;;;;7.45;3.90;;;12.70;98.40;;;;;;7343501;19;107937;-84
2022/04/26 08:19:30;;;;;;;9.10;3.90;;;12.80;97.80;;;;;;7342274;19;108928;-83
2022/04/26 08:21:58;;;;;;;6.93;4.10;;;12.80;97.40;;;;;;7344944;19;107997;-84
2022/04/26 08:27:24;;;;;;;6.13;3.53;;;13.10;97.40;;;;;;7344063;19;109482;-84
2022/04/26 08:29:56;;;;;;;9.05;3.60;;;13.10;96.60;;;;;;7340747;19;108563;-84
2022/04/26 08:32:26;;;;;;;9.65;4.50;;;13.20;96.60;;;;;;7343701;19;108151;-84
2022/04/26 08:34:53;;;;;;;9.32;3.78;;;13.30;96.90;;;;;;7343475;19;108753;-84
2022/04/26 08:37:21;;;;;;;6.00;3.78;;;13.40;96.10;;;;;;7349687;19;107954;-84
2022/04/26 08:39:51;;;;;;;10.38;3.80;;;13.50;95.70;;;;;;7345529;19;110159;-85
2022/04/26 08:42:37;;;;;;;10.38;3.70;;;13.50;95.10;;;;;;7344957;19;107527;-83
2022/04/26 08:45:13;;;;;;;6.00;3.75;;;13.50;95.60;;;;;;7343974;19;108554;-85
2022/04/26 08:53:16;;;;;;;4.65;3.40;;;13.70;95.80;;;;;;7341116;19;108715;-83
2022/04/26 08:55:45;;;;;;;11.13;3.95;;;13.70;95.60;;;;;;7341570;19;108010;-84
2022/04/26 08:58:14;;;;;;;6.50;3.63;;;13.80;94.90;;;;;;7341841;19;109384;-84
2022/04/26 09:01:03;;;;;;;6.38;3.30;;;13.90;95.30;;;;;;7348675;19;107787;-82
2022/04/26 09:03:35;;;;;;;7.45;3.78;;;14.10;94.90;;;;;;7344718;19;108273;-83
2022/04/26 09:06:17;;;;;;;10.68;3.83;;;14.10;94.80;;;;;;7343962;19;109332;-82
2022/04/26 09:08:46;;;;;;;6.15;3.70;;;14.10;94.90;;;;;;7341656;19;109259;-82
2022/04/26 09:11:20;;;;;;;7.10;3.83;;;14.20;94.90;;;;;;7344647;19;107346;-86
2022/04/26 09:13:48;;;;;;;10.02;3.85;;;14.30;95.20;;;;;;7339976;19;109060;-87
2022/04/26 09:16:17;;;;;;;5.38;3.83;;;14.40;94.40;;;;;;7341816;19;109225;-87
2022/04/26 09:19:08;;;;;;;5.38;3.63;;;14.40;94.40;;;;;;7343398;19;108276;-88
2022/04/26 09:25:09;;;;;;;8.93;3.63;;;14.40;93.50;;;;;;7343557;19;109361;-87
2022/04/26 09:27:40;;;;;;;8.38;3.30;;;14.40;94.00;;;;;;7343092;19;107201;-87
2022/04/26 09:30:11;;;;;;;6.03;3.47;;;14.60;94.30;;;;;;7339813;19;109307;-86
2022/04/26 09:32:47;;;;;;;7.57;3.70;;;14.60;93.50;;;;;;7341372;19;107205;-86
2022/04/26 09:35:21;;;;;;;6.97;3.42;;;14.80;93.00;;;;;;7341951;19;108279;-88
2022/04/26 09:37:48;;;;;;;6.93;3.47;;;15.00;92.90;;;;;;7341755;19;109167;-89
2022/04/26 09:40:27;;;;;;;7.28;3.03;;;15.00;92.00;;;;;;7340666;19;110222;-86
2022/04/26 09:42:55;;;;;;;8.13;3.38;;;15.10;91.20;;;;;;7342021;19;108204;-86
2022/04/26 09:45:22;;;;;;;7.32;2.75;;;15.20;91.70;;;;;;7342279;19;108967;-86
2022/04/26 09:47:50;;;;;;;6.45;2.60;;;15.20;91.50;;;;;;7347533;19;107064;-85
2022/04/26 09:50:17;;;;;;;8.93;2.70;;;15.20;90.30;;;;;;7341458;19;109015;-88
2022/04/26 09:52:44;;;;;;;5.82;2.88;;;15.10;90.50;;;;;;7342227;19;108264;-87
2022/04/26 09:55:13;;;;;;;7.43;3.20;;;15.10;90.40;;;;;;7341408;19;108410;-87
2022/04/26 09:57:43;;;;;;;7.32;2.75;;;15.10;90.30;;;;;;7340097;19;109323;-87
2022/04/26 10:00:12;;;;;;;5.68;2.92;;;15.00;90.10;;;;;;7340041;19;107600;-86
2022/04/26 10:02:47;;;;;;;4.15;2.95;;;14.90;90.60;;;;;;7343463;19;107995;-86
2022/04/26 10:05:20;;;;;;;6.70;3.03;;;14.90;90.30;;;;;;7342349;19;108530;-87
2022/04/26 10:07:50;;;;;;;5.65;2.83;;;15.00;91.30;;;;;;7342463;19;107624;-86
2022/04/26 10:10:20;;;;;;;6.85;3.10;;;15.30;91.20;;;;;;7345380;19;107768;-87
2022/04/26 10:15:39;;;;;;;5.45;3.30;;;15.60;90.60;;;;;;7338622;19;108716;-88
2022/04/26 10:18:33;;;;;;;8.65;3.50;;;15.70;91.20;;;;;;7336448;19;110736;-89
2022/04/26 10:21:04;;;;;;;7.63;3.20;;;16.00;91.30;;;;;;7338073;19;108405;-87
2022/04/26 10:23:50;;;;;;;6.18;3.17;;;16.10;91.10;;;;;;7334654;19;108479;-88
2022/04/26 10:26:23;;;;;;;10.45;3.40;;;16.30;90.70;;;;;;7332526;19;108751;-85
2022/04/26 10:29:08;;;;;;;8.55;3.30;;;16.10;89.30;;;;;;7334740;19;107732;-84
2022/04/26 10:31:35;;;;;;;11.35;3.50;;;15.80;91.00;;;;;;7336294;19;108174;-84
2022/04/26 10:34:17;;;;;;;9.88;3.60;;;15.80;91.60;;;;;;7340081;19;107917;-84
2022/04/26 10:36:45;;;;;;;4.57;3.22;;;15.50;91.30;;;;;;7335079;19;108136;-85
2022/04/26 10:39:12;;;;;;;10.73;3.28;;;15.60;91.30;;;;;;7334204;19;107957;-83
2022/04/26 10:41:43;;;;;;;4.95;3.20;;;15.60;91.30;;;;;;7337101;19;108064;-84
2022/04/26 10:44:16;;;;;;;7.70;3.65;;;16.00;91.00;;;;;;7338454;19;107712;-84
2022/04/26 10:46:52;;;;;;;5.22;2.85;;;16.20;90.80;;;;;;7338160;19;108237;-84
2022/04/26 10:49:24;;;;;;;4.75;3.13;;;16.30;90.20;;;;;;7336633;19;108065;-85
2022/04/26 10:51:53;;;;;;;7.80;3.20;;;16.30;90.40;;;;;;7337368;19;107213;-84
2022/04/26 10:54:48;;;;;;;8.32;3.35;;;16.40;89.50;;;;;;7342755;19;109383;-84
2022/04/26 10:57:20;;;;;;;5.47;3.10;;;16.40;90.00;;;;;;7339034;19;108270;-84
2022/04/26 10:59:56;;;;;;;5.85;3.28;;;16.50;88.90;;;;;;7340860;19;109131;-85
2022/04/26 11:02:25;;;;;;;7.80;3.10;;;16.60;87.70;;;;;;7340889;19;107248;-84
2022/04/26 11:04:59;;;;;;;6.15;3.17;;;16.60;88.10;;;;;;7341542;19;109022;-85
2022/04/26 11:07:27;;;;;;;4.93;2.80;;;16.60;86.30;;;;;;7339448;19;109302;-84
2022/04/26 11:09:56;;;;;;;7.32;2.70;;;16.60;86.30;;;;;;7334740;19;109654;-85
2022/04/26 11:12:28;;;;;;;8.88;3.15;;;16.70;86.20;;;;;;7339118;19;107344;-85
2022/04/26 11:15:00;;;;;;;4.50;2.65;;;16.70;84.80;;;;;;7336936;19;111250;-84
2022/04/26 11:17:29;;;;;;;7.53;3.10;;;16.70;84.10;;;;;;7343668;19;107911;-84
2022/04/26 11:20:02;;;;;;;4.47;2.22;;;16.50;82.30;;;;;;7337770;19;108647;-84
2022/04/26 11:22:30;;;;;;;5.03;1.95;;;16.30;81.40;;;;;;7339995;19;107970;-84
2022/04/26 11:28:00;;;;;;;6.93;1.90;;;16.60;76.80;;;;;;7339545;19;107851;-84
2022/04/26 11:30:31;;;;;;;4.63;2.30;;;16.50;77.20;;;;;;7340836;19;107472;-83
2022/04/26 11:33:01;;;;;;;7.25;2.50;;;16.60;77.40;;;;;;7338152;19;110304;-84
2022/04/26 11:35:29;;;;;;;4.18;2.30;;;16.70;76.60;;;;;;7338270;19;109104;-83
2022/04/26 11:38:01;;;;;;;7.30;2.55;;;16.70;74.40;;;;;;7337882;19;108438;-84
2022/04/26 11:40:33;;;;;;;3.67;2.40;;;16.50;75.00;;;;;;7343043;19;108255;-84
2022/04/26 11:43:31;;;;;;;4.47;2.60;;;16.60;75.60;;;;;;7341117;19;107304;-84
2022/04/26 11:45:58;;;;;;;7.13;2.70;;;16.60;76.70;;;;;;7339697;19;107775;-83
2022/04/26 11:48:33;;;;;;;3.63;2.35;;;16.60;79.30;;;;;;7337533;19;108003;-83
2022/04/26 11:51:02;;;;;;;8.55;2.72;;;16.20;77.20;;;;;;7340921;19;107651;-84
2022/04/26 11:53:36;;;;;;;3.30;2.55;;;16.20;78.50;;;;;;7340974;19;108499;-84
2022/04/26 11:56:05;;;;;;;3.85;2.20;;;16.30;78.90;;;;;;7338456;19;108398;-83
2022/04/26 11:58:37;;;;;;;5.05;2.10;;;16.50;76.30;;;;;;7336433;19;108011;-84
2022/04/26 12:01:22;;;;;;;6.72;2.08;;;16.60;75.60;;;;;;7339693;19;108657;-83
2022/04/26 12:03:52;;;;;;;5.53;2.40;;;16.80;75.30;;;;;;7343927;19;109004;-84
2022/04/26 12:06:39;;;;;;;4.22;2.63;;;16.60;76.80;;;;;;7339962;19;107199;-84
2022/04/26 12:09:09;;;;;;;7.07;1.90;;;16.80;77.40;;;;;;7339907;19;108939;-84
2022/04/26 12:11:38;;;;;;;3.83;2.25;;;16.80;75.30;;;;;;7338244;19;107705;-84
2022/04/26 12:14:09;;;;;;;4.22;2.53;;;16.70;74.00;;;;;;7340520;19;108213;-84
2022/04/26 12:16:56;;;;;;;9.55;2.63;;;16.50;75.70;;;;;;7340028;19;112121;-84
2022/04/26 12:19:34;;;;;;;2.92;2.10;;;16.90;74.60;;;;;;7337503;19;108293;-85
2022/04/26 12:22:04;;;;;;;3.53;2.30;;;16.90;74.90;;;;;;7338850;19;108239;-84
2022/04/26 12:24:44;;;;;;;3.95;2.63;;;16.90;73.70;;;;;;7336930;19;107890;-84
2022/04/26 12:27:12;;;;;;;8.07;2.70;;;16.80;73.60;;;;;;7339082;19;107948;-83
2022/04/26 12:29:42;;;;;;;3.38;2.20;;;16.80;74.40;;;;;;7345299;19;111440;-84
2022/04/26 12:32:17;;;;;;;4.90;2.63;;;17.00;75.80;;;;;;7343230;19;111283;-85
2022/04/26 12:34:54;;;;;;;6.72;2.55;;;17.20;72.60;;;;;;7339121;19;108190;-84
2022/04/26 12:37:23;;;;;;;3.58;2.35;;;17.40;73.90;;;;;;7344082;19;108364;-84
2022/04/26 12:39:53;;;;;;;6.20;2.22;;;17.70;74.30;;;;;;7338904;19;107927;-85
2022/04/26 12:42:26;;;;;;;4.28;2.15;;;18.00;71.50;;;;;;7342538;19;109027;-84
2022/04/26 12:45:00;;;;;;;4.03;2.42;;;18.10;72.60;;;;;;7344461;19;109550;-85
2022/04/26 12:50:31;;;;;;;7.30;2.77;;;18.60;69.60;;;;;;7345839;19;111840;-85
2022/04/26 12:53:04;;;;;;;6.53;2.60;;;18.70;70.20;;;;;;7341883;19;107844;-84
2022/04/26 12:55:35;;;;;;;7.18;2.53;;;18.90;71.20;;;;;;7343047;19;108271;-84
2022/04/26 12:58:07;;;;;;;6.70;2.55;;;18.90;70.80;;;;;;7341474;19;111494;-84
2022/04/26 13:00:45;;;;;;;4.15;2.10;;;18.60;70.00;;;;;;7342493;19;108346;-84
2022/04/26 13:03:18;;;;;;;4.28;2.00;;;18.60;68.40;;;;;;7343999;19;108573;-84
2022/04/26 13:06:03;;;;;;;4.00;1.73;;;18.60;67.50;;;;;;7342653;19;108385;-84
2022/04/26 13:08:54;;;;;;;5.03;2.00;;;18.40;66.40;;;;;;7342764;19;109015;-85
2022/04/26 13:11:21;;;;;;;5.50;2.20;;;18.50;66.60;;;;;;7347198;19;107555;-84
2022/04/26 13:13:49;;;;;;;2.78;1.92;;;18.90;65.70;;;;;;7342318;19;108693;-83
2022/04/26 13:16:19;;;;;;;4.00;1.85;;;18.90;64.30;;;;;;7343858;19;108405;-83
2022/04/26 13:18:47;;;;;;;7.10;1.80;;;19.10;67.00;;;;;;7341456;19;108891;-84
2022/04/26 13:21:14;;;;;;;5.55;2.20;;;19.40;65.60;;;;;;7342623;19;107922;-84
2022/04/26 13:23:41;;;;;;;8.85;2.10;;;19.50;62.70;;;;;;7340003;19;108746;-85
2022/04/26 13:26:08;;;;;;;6.10;2.25;;;19.40;63.80;;;;;;7340601;19;110893;-84
2022/04/26 13:28:35;;;;;;;6.07;1.92;;;19.40;65.50;;;;;;7339996;19;107843;-85
2022/04/26 13:31:02;;;;;;;2.42;1.70;;;19.00;62.50;;;;;;7341280;19;108209;-85
2022/04/26 13:33:30;;;;;;;4.50;1.90;;;18.80;65.10;;;;;;7346257;19;111453;-84
2022/04/26 13:35:57;;;;;;;3.72;1.77;;;19.10;64.50;;;;;;7343019;19;107936;-85
2022/04/26 13:38:24;;;;;;;5.53;1.88;;;19.30;64.80;;;;;;7342477;19;108777;-84
2022/04/26 13:40:53;;;;;;;4.55;2.08;;;19.00;62.80;;;;;;7341496;19;107814;-85
2022/04/26 13:43:23;;;;;;;5.97;2.10;;;18.50;64.40;;;;;;7342039;19;108253;-85
2022/04/26 13:46:11;;;;;;;3.47;1.90;;;18.50;64.90;;;;;;7340608;19;109314;-84
2022/04/26 13:48:38;;;;;;;4.93;1.92;;;18.90;63.50;;;;;;7343207;19;108398;-85
2022/04/26 13:51:05;;;;;;;7.22;2.10;;;19.10;63.80;;;;;;7342925;19;107831;-85
2022/04/26 13:53:33;;;;;;;4.35;2.08;;;19.30;63.60;;;;;;7342203;19;109403;-85
2022/04/26 13:56:00;;;;;;;5.30;2.08;;;19.60;62.50;;;;;;7346197;19;107994;-85
2022/04/26 13:58:28;;;;;;;2.83;1.95;;;19.90;62.10;;;;;;7341028;19;109151;-85
2022/04/26 14:00:55;;;;;;;2.72;1.73;;;19.70;60.20;;;;;;7341548;19;107672;-85
2022/04/26 14:03:22;;;;;;;4.28;1.98;;;19.60;62.50;;;;;;7343336;19;108030;-84
2022/04/26 14:05:49;;;;;;;7.53;1.90;;;19.80;62.80;;;;;;7343270;19;107944;-85
2022/04/26 14:08:16;;;;;;;2.70;1.92;;;20.20;62.60;;;;;;7341677;19;108202;-85
2022/04/26 14:10:43;;;;;;;2.60;2.10;;;20.50;59.80;;;;;;7340866;19;108242;-85
2022/04/26 14:13:10;;;;;;;6.25;1.80;;;20.50;58.80;;;;;;7340707;19;109038;-84
2022/04/26 14:24:07;;;;;;;4.43;1.88;;;20.40;58.00;;;;;;7335873;19;107662;-85
2022/04/26 14:26:35;;;;;;;2.53;1.83;;;20.40;57.00;;;;;;7337510;19;109257;-85
2022/04/26 14:29:02;;;;;;;4.25;1.77;;;20.30;58.30;;;;;;7339291;19;107848;-85
2022/04/26 14:31:29;;;;;;;4.03;1.70;;;20.20;56.60;;;;;;7339208;19;109514;-85
2022/04/26 14:33:57;;;;;;;7.85;2.08;;;19.60;56.80;;;;;;7337318;19;107818;-85
2022/04/26 14:36:24;;;;;;;37.83;2.78;;;19.50;58.20;;;;;;7338466;19;108021;-84
2022/04/26 14:39:12;;;;;;;7.32;1.80;;;19.60;57.50;;;;;;7336577;19;108960;-85
2022/04/26 14:41:40;;;;;;;2.92;2.10;;;19.70;58.50;;;;;;7343564;19;108263;-85
2022/04/26 14:44:07;;;;;;;4.00;2.30;;;20.00;58.20;;;;;;7338545;19;108294;-85
2022/04/26 14:46:35;;;;;;;4.30;1.73;;;20.20;58.20;;;;;;7337798;19;110198;-85
2022/04/26 14:49:06;;;;;;;6.07;1.75;;;20.40;58.20;;;;;;7337810;19;108079;-85
2022/04/26 14:51:33;;;;;;;3.30;1.80;;;20.20;57.80;;;;;;7336332;19;108753;-85
2022/04/26 14:54:00;;;;;;;6.75;1.95;;;19.90;56.90;;;;;;7337518;19;108670;-85
2022/04/26 14:56:27;;;;;;;8.80;1.92;;;20.00;57.20;;;;;;7338181;19;108294;-86
2022/04/26 14:59:16;;;;;;;5.38;1.98;;;20.10;57.80;;;;;;7340323;19;107267;-86
2022/04/26 15:01:48;;;;;;;4.05;2.75;;;20.00;57.10;;;;;;7340565;19;108430;-85
2022/04/26 15:04:17;;;;;;;4.90;2.10;;;19.70;58.50;;;;;;7345251;19;107359;-84
2022/04/26 15:06:44;;;;;;;6.28;2.10;;;19.80;58.70;;;;;;7340745;19;108333;-85
2022/04/26 15:17:31;;;;;;;12.82;2.40;;;19.70;60.00;;;;;;7339370;19;108115;-85
2022/04/26 15:20:01;;;;;;;6.20;2.55;;;19.40;58.30;;;;;;7335598;19;107421;-83
2022/04/26 15:22:29;;;;;;;4.72;2.33;;;19.30;59.00;;;;;;7339620;19;109280;-85
2022/04/26 15:24:56;;;;;;;7.28;2.55;;;19.50;60.20;;;;;;7341438;19;108320;-84
2022/04/26 15:27:23;;;;;;;3.22;2.30;;;20.00;59.70;;;;;;7340115;19;109108;-84
2022/04/26 15:29:50;;;;;;;5.47;2.17;;;20.30;58.70;;;;;;7340232;19;108234;-85
2022/04/26 15:32:19;;;;;;;16.30;2.58;;;20.40;58.70;;;;;;7340988;19;108163;-85
2022/04/26 15:34:47;;;;;;;2.38;1.70;;;20.40;56.20;;;;;;7338050;19;111930;-85
2022/04/26 15:37:14;;;;;;;4.53;1.90;;;19.70;56.80;;;;;;7338393;19;113341;-84
2022/04/26 15:39:42;;;;;;;7.50;2.00;;;19.30;58.40;;;;;;7338125;19;108225;-85
2022/04/26 15:42:09;;;;;;;2.88;2.00;;;19.20;58.90;;;;;;7340192;19;108917;-84
2022/04/26 15:44:36;;;;;;;4.82;2.10;;;19.20;59.30;;;;;;7338377;19;108013;-84
2022/04/26 15:47:03;;;;;;;3.88;2.33;;;19.30;58.90;;;;;;7342664;19;108281;-84
2022/04/26 15:49:48;;;;;;;8.25;2.35;;;19.50;58.30;;;;;;7341062;19;111514;-85
2022/04/26 15:52:33;;;;;;;4.43;2.38;;;19.50;58.40;;;;;;7335543;19;108257;-84
2022/04/26 15:55:09;;;;;;;7.68;2.97;;;19.50;59.40;;;;;;7340621;19;108909;-84
2022/04/26 15:57:36;;;;;;;9.02;2.67;;;19.30;59.20;;;;;;7335241;19;107243;-85
2022/04/26 16:00:11;;;;;;;6.18;2.72;;;19.00;60.30;;;;;;7336839;19;107640;-85
2022/04/26 16:06:58;;;;;;;3.92;2.20;;;18.70;61.40;;;;;;7339163;19;108956;-84
2022/04/26 16:20:28;;;;;;;4.93;2.50;;;17.90;63.40;;;;;;7340475;19;107558;-84
2022/04/26 16:23:03;;;;;;;7.38;2.83;;;17.70;64.40;;;;;;7341638;19;108247;-85
2022/04/26 16:25:30;;;;;;;4.97;2.70;;;17.90;64.90;;;;;;7340886;19;107846;-83
2022/04/26 16:28:00;;;;;;;10.57;3.05;;;18.20;64.00;;;;;;7341252;19;110309;-84
2022/04/26 16:30:29;;;;;;;8.05;2.55;;;18.20;64.50;;;;;;7341702;19;108365;-83
2022/04/26 16:32:57;;;;;;;10.98;2.92;;;18.30;64.60;;;;;;7337327;19;108689;-84
2022/04/26 16:35:25;;;;;;;4.65;2.38;;;18.30;64.20;;;;;;7346022;19;107569;-84
2022/04/26 16:37:55;;;;;;;5.20;2.58;;;18.20;64.20;;;;;;7340658;19;108449;-83
2022/04/26 16:40:22;;;;;;;5.15;2.88;;;18.20;64.40;;;;;;7337945;19;109346;-83
2022/04/26 16:42:50;;;;;;;3.90;2.80;;;18.10;64.00;;;;;;7340298;19;107436;-84
2022/04/26 16:45:17;;;;;;;7.13;2.97;;;18.10;65.00;;;;;;7340521;19;108734;-84
2022/04/26 16:47:45;;;;;;;3.97;3.10;;;18.00;65.30;;;;;;7340314;19;107969;-84
2022/04/26 16:50:12;;;;;;;8.35;3.35;;;17.90;65.90;;;;;;7340420;19;108573;-85
2022/04/26 16:52:40;;;;;;;7.47;3.55;;;17.80;66.10;;;;;;7340346;19;109292;-83
2022/04/26 16:55:07;;;;;;;3.92;2.80;;;17.70;66.50;;;;;;7340233;19;108371;-83
2022/04/26 16:57:34;;;;;;;5.10;3.00;;;17.70;66.40;;;;;;7341658;19;107455;-83
2022/04/26 17:00:03;;;;;;;4.57;3.10;;;17.50;67.30;;;;;;7338175;19;108845;-83
2022/04/26 17:02:30;;;;;;;5.82;3.00;;;17.40;68.30;;;;;;7339203;19;107267;-82
2022/04/26 17:04:58;;;;;;;6.28;3.50;;;17.20;68.30;;;;;;7334674;19;112517;-83
2022/04/26 17:07:25;;;;;;;7.38;3.40;;;17.10;69.10;;;;;;7332236;19;111139;-83
2022/04/26 17:09:52;;;;;;;6.55;3.30;;;17.00;69.70;;;;;;7335305;19;109197;-82
2022/04/26 17:12:20;;;;;;;7.88;3.65;;;16.90;70.20;;;;;;7336903;19;109364;-82
2022/04/26 17:14:47;;;;;;;6.20;3.53;;;16.80;70.60;;;;;;7340386;19;107468;-81
2022/04/26 17:17:14;;;;;;;6.50;3.97;;;16.70;71.30;;;;;;7347223;19;107153;-82
2022/04/26 17:19:41;;;;;;;11.25;3.90;;;16.70;71.40;;;;;;7340021;19;107995;-81
2022/04/26 17:22:09;;;;;;;8.70;3.38;;;16.70;72.00;;;;;;7341566;19;108214;-82
2022/04/26 17:27:21;;;;;;;6.55;3.10;;;16.70;72.90;;;;;;7342796;19;108547;-82
2022/04/26 17:29:49;;;;;;;11.00;3.50;;;16.80;72.40;;;;;;7343870;19;108602;-82
2022/04/26 17:32:25;;;;;;;12.55;3.88;;;16.70;72.50;;;;;;7340551;19;108928;-82